createdAt,value
2022-09-15T00:01:12.307Z,23.82
2022-09-15T00:03:40.632Z,23.99
2022-09-15T00:06:08.885Z,24.00
2022-09-15T00:08:36.272Z,23.99
2022-09-15T00:11:15.485Z,23.94
2022-09-15T00:13:43.728Z,23.74
2022-09-15T00:16:15.029Z,23.65
2022-09-15T00:18:44.088Z,23.69
2022-09-15T00:21:18.961Z,23.81
2022-09-15T00:23:47.876Z,23.88
2022-09-15T00:26:18.107Z,24.14
2022-09-15T00:28:46.108Z,23.90
2022-09-15T00:31:16.337Z,23.95
2022-09-15T00:33:47.717Z,23.94
2022-09-15T00:36:16.008Z,24.04
2022-09-15T00:38:43.787Z,24.07
2022-09-15T00:41:13.998Z,24.00
2022-09-15T00:43:58.177Z,23.75
2022-09-15T00:46:30.096Z,23.73
2022-09-15T00:49:13.220Z,24.17
2022-09-15T00:51:47.669Z,23.81
2022-09-15T00:54:23.313Z,23.68
2022-09-15T00:56:55.060Z,24.46
2022-09-15T00:59:26.232Z,24.39
2022-09-15T01:02:07.725Z,23.90
2022-09-15T01:04:35.311Z,23.75
2022-09-15T01:07:05.588Z,24.31
2022-09-15T01:09:50.546Z,24.39
2022-09-15T01:12:18.808Z,23.92
2022-09-15T01:14:46.338Z,23.74
2022-09-15T01:17:13.815Z,23.54
2022-09-15T01:20:00.156Z,23.34
2022-09-15T01:22:41.541Z,23.23
2022-09-15T01:25:14.354Z,23.30
2022-09-15T01:27:56.513Z,23.27
2022-09-15T01:30:24.791Z,23.46
2022-09-15T01:33:39.896Z,23.50
2022-09-15T01:36:18.593Z,23.39
2022-09-15T01:38:52.101Z,23.44
2022-09-15T01:41:55.538Z,23.34
2022-09-15T01:44:27.869Z,23.36
2022-09-15T01:47:00.521Z,23.92
2022-09-15T01:49:36.491Z,23.94
2022-09-15T01:52:05.293Z,24.32
2022-09-15T01:54:40.062Z,24.02
2022-09-15T01:57:07.458Z,23.95
2022-09-15T01:59:34.943Z,23.94
2022-09-15T02:02:11.884Z,24.09
2022-09-15T02:05:06.021Z,24.61
2022-09-15T02:07:39.180Z,24.25
2022-09-15T02:10:22.380Z,24.00
2022-09-15T02:13:17.163Z,24.40
2022-09-15T02:15:51.719Z,23.96
2022-09-15T02:18:41.789Z,24.07
2022-09-15T02:21:24.106Z,24.05
2022-09-15T02:23:57.290Z,23.76
2022-09-15T02:26:27.806Z,23.51
2022-09-15T02:28:59.156Z,23.49
2022-09-15T02:31:28.155Z,23.32
2022-09-15T02:34:00.586Z,23.22
2022-09-15T02:36:29.482Z,23.20
2022-09-15T02:39:06.704Z,23.30
2022-09-15T02:41:36.677Z,23.22
2022-09-15T02:44:04.248Z,23.14
2022-09-15T02:46:31.756Z,23.40
2022-09-15T02:48:59.133Z,23.48
2022-09-15T02:51:26.590Z,23.36
2022-09-15T02:53:54.728Z,23.12
2022-09-15T02:56:22.354Z,23.14
2022-09-15T02:58:49.730Z,23.08
2022-09-15T03:01:17.481Z,23.09
2022-09-15T03:03:46.067Z,23.13
2022-09-15T03:06:17.204Z,23.21
2022-09-15T03:08:52.982Z,23.47
2022-09-15T03:11:22.842Z,23.67
2022-09-15T03:13:57.666Z,23.92
2022-09-15T03:16:26.036Z,23.92
2022-09-15T03:18:55.718Z,23.97
2022-09-15T03:21:23.238Z,23.36
2022-09-15T03:23:50.947Z,23.06
2022-09-15T03:26:18.476Z,23.21
2022-09-15T03:28:45.828Z,23.22
2022-09-15T03:31:13.387Z,23.23
2022-09-15T03:33:40.791Z,23.54
2022-09-15T03:36:08.984Z,24.07
2022-09-15T03:38:36.310Z,24.01
2022-09-15T03:41:11.300Z,23.80
2022-09-15T03:43:39.398Z,23.64
2022-09-15T03:46:09.390Z,23.17
2022-09-15T03:48:37.118Z,22.86
2022-09-15T03:51:05.777Z,22.91
2022-09-15T03:53:39.172Z,23.27
2022-09-15T03:56:10.539Z,23.24
2022-09-15T03:58:38.012Z,23.28
2022-09-15T04:01:05.509Z,23.43
2022-09-15T04:03:33.068Z,23.80
2022-09-15T04:06:00.632Z,23.56
2022-09-15T04:08:28.126Z,23.60
2022-09-15T04:10:55.546Z,23.33
2022-09-15T04:13:28.430Z,23.49
2022-09-15T04:16:01.141Z,23.54
2022-09-15T04:18:30.228Z,23.70
2022-09-15T04:21:02.045Z,23.71
2022-09-15T04:23:29.811Z,23.40
2022-09-15T04:25:59.719Z,23.27
2022-09-15T04:28:28.012Z,23.45
2022-09-15T04:31:07.499Z,23.22
2022-09-15T04:33:36.103Z,23.10
2022-09-15T04:36:06.588Z,22.75
2022-09-15T04:38:35.343Z,22.99
2022-09-15T04:41:04.087Z,22.73
2022-09-15T04:43:32.796Z,22.59
2022-09-15T04:46:00.100Z,22.76
2022-09-15T04:48:27.525Z,22.74
2022-09-15T04:50:54.938Z,22.80
2022-09-15T04:53:22.355Z,22.93
2022-09-15T04:55:49.770Z,22.85
2022-09-15T04:58:17.121Z,22.79
2022-09-15T05:00:44.473Z,22.63
2022-09-15T05:03:13.992Z,22.81
2022-09-15T05:05:41.431Z,22.62
2022-09-15T05:08:08.850Z,22.67
2022-09-15T05:10:38.238Z,22.78
2022-09-15T05:13:05.808Z,22.84
2022-09-15T05:15:33.431Z,22.65
2022-09-15T05:18:01.355Z,22.71
2022-09-15T05:20:29.819Z,22.64
2022-09-15T05:22:57.337Z,22.54
2022-09-15T05:25:25.063Z,22.79
2022-09-15T05:27:52.503Z,23.18
2022-09-15T05:33:07.469Z,23.36
2022-09-15T05:35:34.945Z,23.54
2022-09-15T05:38:02.999Z,23.55
2022-09-15T05:40:30.596Z,23.61
2022-09-15T05:42:58.284Z,23.38
2022-09-15T05:45:25.764Z,23.04
2022-09-15T05:47:53.118Z,22.89
2022-09-15T05:50:20.717Z,23.12
2022-09-15T05:52:51.440Z,23.44
2022-09-15T05:55:18.898Z,23.51
2022-09-15T05:57:46.236Z,23.89
2022-09-15T06:00:14.109Z,24.07
2022-09-15T06:02:41.566Z,24.19
2022-09-15T06:05:09.314Z,24.25
2022-09-15T06:07:37.133Z,24.03
2022-09-15T06:10:04.986Z,23.88
2022-09-15T06:12:32.404Z,24.24
2022-09-15T06:14:59.907Z,24.20
2022-09-15T06:17:27.309Z,24.01
2022-09-15T06:19:55.111Z,23.84
2022-09-15T06:22:22.572Z,24.14
2022-09-15T06:24:50.179Z,23.96
2022-09-15T06:27:17.861Z,23.53
2022-09-15T06:29:45.250Z,23.75
2022-09-15T06:32:12.863Z,23.97
2022-09-15T06:34:40.381Z,24.02
2022-09-15T06:37:08.285Z,24.03
2022-09-15T06:39:35.791Z,24.07
2022-09-15T06:42:05.633Z,23.95
2022-09-15T06:44:35.566Z,23.52
2022-09-15T06:47:04.137Z,23.85
2022-09-15T06:49:31.836Z,23.51
2022-09-15T06:52:01.908Z,23.45
2022-09-15T06:54:29.336Z,23.38
2022-09-15T06:56:56.760Z,23.76
2022-09-15T06:59:24.738Z,23.67
2022-09-15T07:01:54.585Z,24.05
2022-09-15T07:04:22.573Z,23.94
2022-09-15T07:06:50.643Z,23.71
2022-09-15T07:09:17.976Z,23.75
2022-09-15T07:11:45.474Z,24.17
2022-09-15T07:14:12.989Z,24.04
2022-09-15T07:16:40.419Z,24.10
2022-09-15T07:19:07.885Z,24.49
2022-09-15T07:21:35.509Z,24.40
2022-09-15T07:24:07.051Z,24.33
2022-09-15T07:26:35.306Z,24.13
2022-09-15T07:29:06.056Z,24.47
2022-09-15T07:31:35.647Z,24.50
2022-09-15T07:34:03.325Z,24.79
2022-09-15T07:36:31.400Z,24.82
2022-09-15T07:38:58.837Z,24.85
2022-09-15T07:41:31.231Z,24.42
2022-09-15T07:44:00.389Z,24.48
2022-09-15T07:46:31.220Z,24.51
2022-09-15T07:48:59.121Z,24.69
2022-09-15T07:51:26.595Z,25.06
2022-09-15T07:53:54.583Z,25.25
2022-09-15T07:56:23.871Z,25.16
2022-09-15T07:58:51.737Z,24.94
2022-09-15T08:01:20.634Z,25.38
2022-09-15T08:03:50.187Z,25.67
2022-09-15T08:06:19.980Z,26.08
2022-09-15T08:08:47.758Z,25.90
2022-09-15T08:11:19.214Z,25.87
2022-09-15T08:13:49.428Z,25.87
2022-09-15T08:16:20.481Z,26.16
2022-09-15T08:18:49.003Z,26.01
2022-09-15T08:21:20.293Z,26.01
2022-09-15T08:23:56.266Z,26.31
2022-09-15T08:26:25.229Z,26.34
2022-09-15T08:28:52.827Z,26.50
2022-09-15T08:31:24.277Z,26.85
2022-09-15T08:33:54.262Z,26.84
2022-09-15T08:36:22.321Z,26.76
2022-09-15T08:38:49.655Z,27.23
2022-09-15T08:41:31.426Z,27.37
2022-09-15T08:44:29.037Z,27.52
2022-09-15T08:47:06.919Z,27.36
2022-09-15T08:49:51.145Z,27.55
2022-09-15T08:52:26.902Z,27.84
2022-09-15T08:54:58.640Z,27.72
2022-09-15T08:57:26.311Z,27.88
2022-09-15T08:59:54.981Z,27.73
2022-09-15T09:02:59.834Z,27.74
2022-09-15T09:05:34.327Z,27.61
2022-09-15T09:08:26.272Z,27.86
2022-09-15T09:10:57.902Z,28.29
2022-09-15T09:13:49.403Z,28.41
2022-09-15T09:16:31.997Z,28.53
2022-09-15T09:18:59.260Z,28.11
2022-09-15T09:21:39.280Z,27.95
2022-09-15T09:24:16.472Z,27.79
2022-09-15T09:26:49.600Z,28.29
2022-09-15T09:29:24.343Z,28.17
2022-09-15T09:31:55.647Z,28.03
2022-09-15T09:34:31.353Z,28.38
2022-09-15T09:37:00.681Z,28.18
2022-09-15T09:39:28.727Z,28.44
2022-09-15T09:41:56.916Z,29.03
2022-09-15T09:44:31.950Z,29.48
2022-09-15T09:47:00.974Z,29.34
2022-09-15T09:49:35.580Z,28.84
2022-09-15T09:52:04.770Z,29.25
2022-09-15T09:54:34.241Z,29.74
2022-09-15T09:57:13.575Z,29.96
2022-09-15T09:59:43.624Z,29.48
2022-09-15T10:02:10.992Z,29.52
2022-09-15T10:04:39.850Z,29.59
2022-09-15T10:07:08.392Z,29.34
2022-09-15T10:09:37.555Z,29.52
2022-09-15T10:12:06.396Z,29.75
2022-09-15T10:14:40.753Z,29.59
2022-09-15T10:17:17.188Z,29.84
2022-09-15T10:19:52.936Z,30.19
2022-09-15T10:22:41.543Z,30.46
2022-09-15T10:25:57.597Z,30.03
2022-09-15T10:28:26.209Z,30.31
2022-09-15T10:31:13.316Z,30.23
2022-09-15T10:33:42.708Z,30.41
2022-09-15T10:36:33.365Z,30.71
2022-09-15T10:39:14.586Z,30.73
2022-09-15T10:42:05.298Z,30.83
2022-09-15T10:44:59.117Z,30.22
2022-09-15T10:47:29.620Z,30.39
2022-09-15T10:50:04.370Z,30.30
2022-09-15T10:52:50.039Z,30.28
2022-09-15T10:55:51.592Z,30.36
2022-09-15T10:59:03.735Z,30.36
2022-09-15T11:01:31.153Z,30.70
2022-09-15T11:04:42.646Z,30.82
2022-09-15T11:07:35.994Z,30.96
2022-09-15T11:10:11.072Z,30.89
2022-09-15T11:13:11.875Z,31.00
2022-09-15T11:15:50.508Z,30.56
2022-09-15T11:18:36.125Z,30.70
2022-09-15T11:21:19.444Z,31.07
2022-09-15T11:23:46.724Z,30.88
2022-09-15T11:26:19.429Z,31.22
2022-09-15T11:28:58.310Z,31.26
2022-09-15T11:31:30.789Z,30.19
2022-09-15T11:34:03.652Z,30.32
2022-09-15T11:36:40.704Z,30.60
2022-09-15T11:39:17.869Z,30.82
2022-09-15T11:42:01.825Z,31.12
2022-09-15T11:44:42.966Z,31.30
2022-09-15T11:47:10.324Z,31.30
2022-09-15T11:49:54.293Z,31.42
2022-09-15T11:52:46.227Z,31.12
2022-09-15T11:55:32.111Z,31.39
2022-09-15T11:58:22.479Z,30.85
2022-09-15T12:01:03.105Z,30.60
2022-09-15T12:03:33.116Z,30.88
2022-09-15T12:06:08.224Z,30.98
2022-09-15T12:08:52.393Z,31.15
2022-09-15T12:11:23.526Z,31.20
2022-09-15T12:13:52.205Z,31.36
2022-09-15T12:16:21.383Z,31.40
2022-09-15T12:18:50.583Z,31.71
2022-09-15T12:21:24.239Z,32.14
2022-09-15T12:24:09.414Z,32.07
2022-09-15T12:26:38.059Z,32.04
2022-09-15T12:29:42.490Z,32.51
2022-09-15T12:32:42.544Z,32.55
2022-09-15T12:35:15.754Z,32.43
2022-09-15T12:37:53.057Z,32.37
2022-09-15T12:40:36.135Z,32.07
2022-09-15T12:43:18.588Z,32.71
2022-09-15T12:46:00.723Z,32.85
2022-09-15T12:48:34.689Z,32.63
2022-09-15T12:51:05.153Z,32.93
2022-09-15T12:56:11.784Z,32.88
2022-09-15T12:58:42.131Z,32.75
2022-09-15T13:01:56.071Z,32.90
2022-09-15T13:04:46.253Z,32.64
2022-09-15T13:07:16.489Z,32.42
2022-09-15T13:09:55.669Z,32.56
2022-09-15T13:12:29.857Z,32.79
2022-09-15T13:15:01.740Z,32.60
2022-09-15T13:17:30.994Z,32.03
2022-09-15T13:20:07.298Z,31.80
2022-09-15T13:22:37.845Z,31.69
2022-09-15T13:25:13.850Z,31.88
2022-09-15T13:28:00.472Z,32.16
2022-09-15T13:30:36.917Z,32.14
2022-09-15T13:40:02.714Z,30.76
2022-09-15T13:42:33.360Z,30.73
2022-09-15T13:45:29.610Z,30.72
2022-09-15T13:48:15.269Z,30.76
2022-09-15T13:50:55.600Z,31.11
2022-09-15T13:54:02.960Z,31.02
2022-09-15T13:56:39.991Z,31.45
2022-09-15T13:59:16.948Z,31.46
2022-09-15T14:01:45.330Z,31.06
2022-09-15T14:04:20.946Z,30.64
2022-09-15T14:06:51.913Z,30.33
2022-09-15T14:09:23.812Z,30.27
2022-09-15T14:11:55.334Z,30.64
2022-09-15T14:14:35.127Z,30.59
2022-09-15T14:17:03.069Z,30.44
2022-09-15T14:19:38.226Z,30.19
2022-09-15T14:22:17.870Z,30.13
2022-09-15T14:24:45.418Z,30.13
2022-09-15T14:27:21.630Z,30.21
2022-09-15T14:29:54.419Z,30.17
2022-09-15T14:32:22.462Z,30.36
2022-09-15T14:34:51.029Z,30.05
2022-09-15T14:37:24.061Z,29.98
2022-09-15T14:39:52.040Z,29.92
2022-09-15T14:42:22.859Z,29.60
2022-09-15T14:47:40.507Z,29.59
2022-09-15T14:50:17.855Z,29.54
2022-09-15T14:52:51.895Z,29.41
2022-09-15T14:55:28.730Z,29.35
2022-09-15T14:57:59.189Z,29.14
2022-09-15T15:00:32.166Z,29.03
2022-09-15T15:03:22.441Z,29.08
2022-09-15T15:06:02.764Z,28.86
2022-09-15T15:08:35.322Z,28.84
2022-09-15T15:11:06.792Z,28.79
2022-09-15T15:13:36.728Z,28.68
2022-09-15T15:16:18.818Z,28.51
2022-09-15T15:18:46.558Z,28.64
2022-09-15T15:21:28.957Z,28.67
2022-09-15T15:23:56.669Z,28.76
2022-09-15T15:26:36.157Z,28.75
2022-09-15T15:29:08.459Z,28.70
2022-09-15T15:31:40.159Z,28.85
2022-09-15T15:34:24.613Z,29.17
2022-09-15T15:36:52.001Z,29.20
2022-09-15T15:39:24.968Z,28.96
2022-09-15T15:42:02.518Z,28.95
2022-09-15T15:44:31.510Z,28.63
2022-09-15T15:47:01.984Z,28.92
2022-09-15T15:49:32.516Z,28.67
2022-09-15T15:52:01.782Z,28.68
2022-09-15T15:54:29.534Z,28.73
2022-09-15T15:57:20.221Z,28.49
2022-09-15T15:59:47.728Z,28.33
2022-09-15T16:02:15.125Z,28.24
2022-09-15T16:04:42.522Z,28.37
2022-09-15T16:07:17.795Z,28.48
2022-09-15T16:09:46.390Z,28.66
2022-09-15T16:12:14.360Z,28.66
2022-09-15T16:14:42.208Z,28.67
2022-09-15T16:17:10.323Z,28.82
2022-09-15T16:19:37.775Z,28.66
2022-09-15T16:22:05.475Z,28.46
2022-09-15T16:24:33.244Z,28.31
2022-09-15T16:27:00.710Z,28.10
2022-09-15T16:29:36.023Z,28.26
2022-09-15T16:32:06.013Z,28.24
2022-09-15T16:34:33.471Z,28.15
2022-09-15T16:37:00.883Z,28.41
2022-09-15T16:39:28.262Z,28.46
2022-09-15T16:41:55.767Z,28.43
2022-09-15T16:44:23.294Z,28.41
2022-09-15T16:46:50.999Z,28.43
2022-09-15T16:49:18.605Z,28.41
2022-09-15T16:51:45.986Z,28.42
2022-09-15T16:54:16.448Z,28.19
2022-09-15T16:56:45.863Z,28.19
2022-09-15T16:59:13.314Z,28.26
2022-09-15T17:01:41.116Z,28.47
2022-09-15T17:04:15.828Z,28.20
2022-09-15T17:06:43.370Z,28.22
2022-09-15T17:09:10.926Z,28.33
2022-09-15T17:11:38.335Z,28.38
2022-09-15T17:14:06.244Z,28.39
2022-09-15T17:16:33.582Z,28.25
2022-09-15T17:19:00.931Z,28.16
2022-09-15T17:21:28.712Z,27.96
2022-09-15T17:23:56.062Z,27.99
2022-09-15T17:26:31.057Z,28.02
2022-09-15T17:28:58.952Z,28.06
2022-09-15T17:31:27.878Z,27.82
2022-09-15T17:33:55.608Z,27.68
2022-09-15T17:36:23.039Z,27.56
2022-09-15T17:38:50.428Z,27.32
2022-09-15T17:41:20.667Z,27.28
2022-09-15T17:43:48.424Z,27.16
2022-09-15T17:46:16.450Z,27.20
2022-09-15T17:48:43.873Z,27.04
2022-09-15T17:51:19.885Z,27.19
2022-09-15T17:53:47.873Z,27.43
2022-09-15T17:56:15.516Z,26.90
2022-09-15T17:58:43.248Z,27.02
2022-09-15T18:01:15.193Z,27.17
2022-09-15T18:03:44.822Z,27.67
2022-09-15T18:06:12.976Z,27.31
2022-09-15T18:08:40.751Z,26.99
2022-09-15T18:11:08.766Z,27.16
2022-09-15T18:13:37.374Z,26.98
2022-09-15T18:16:06.765Z,27.05
2022-09-15T18:18:34.509Z,27.44
2022-09-15T18:21:08.495Z,27.34
2022-09-15T18:23:56.054Z,27.71
2022-09-15T18:26:26.320Z,27.64
2022-09-15T18:28:54.690Z,27.65
2022-09-15T18:31:22.778Z,28.04
2022-09-15T18:33:50.297Z,27.95
2022-09-15T18:36:18.075Z,27.09
2022-09-15T18:38:45.752Z,27.17
2022-09-15T18:41:14.711Z,26.75
2022-09-15T18:43:43.803Z,26.87
2022-09-15T18:46:11.333Z,26.87
2022-09-15T18:48:38.942Z,26.85
2022-09-15T18:51:10.814Z,26.46
2022-09-15T18:53:39.504Z,26.71
2022-09-15T18:56:14.728Z,26.69
2022-09-15T18:58:42.417Z,26.62
2022-09-15T19:01:10.271Z,26.73
2022-09-15T19:03:44.057Z,26.53
2022-09-15T19:06:12.702Z,26.70
2022-09-15T19:08:40.808Z,27.10
2022-09-15T19:11:09.284Z,27.27
2022-09-15T19:13:36.933Z,27.96
2022-09-15T19:16:08.760Z,27.73
2022-09-15T19:18:36.993Z,27.62
2022-09-15T19:21:10.568Z,27.61
2022-09-15T19:23:39.236Z,27.33
2022-09-15T19:26:09.162Z,26.89
2022-09-15T19:28:36.802Z,26.64
2022-09-15T19:31:04.305Z,26.88
2022-09-15T19:33:32.216Z,26.99
2022-09-15T19:36:17.538Z,27.37
2022-09-15T19:38:52.730Z,27.38
2022-09-15T19:41:20.455Z,27.26
2022-09-15T19:43:48.058Z,27.00
2022-09-15T19:46:19.414Z,26.95
2022-09-15T19:48:49.970Z,27.00
2022-09-15T19:51:18.936Z,27.15
2022-09-15T19:53:46.998Z,26.36
2022-09-15T19:56:22.277Z,26.48
2022-09-15T19:58:49.869Z,26.65
2022-09-15T20:01:18.336Z,26.39
2022-09-15T20:06:32.627Z,26.59
2022-09-15T20:09:00.504Z,27.18
2022-09-15T20:11:29.627Z,27.47
2022-09-15T20:13:57.530Z,27.34
2022-09-15T20:16:25.213Z,26.97
2022-09-15T20:18:54.012Z,26.79
2022-09-15T20:21:46.305Z,26.65
2022-09-15T20:24:16.467Z,26.42
2022-09-15T20:26:44.239Z,26.43
2022-09-15T20:29:12.338Z,26.33
2022-09-15T20:31:40.175Z,26.52
2022-09-15T20:34:07.651Z,26.86
2022-09-15T20:36:38.455Z,27.20
2022-09-15T20:39:10.604Z,27.11
2022-09-15T20:41:38.785Z,26.77
2022-09-15T20:44:09.450Z,26.59
2022-09-15T20:46:37.427Z,26.40
2022-09-15T20:49:05.402Z,25.83
2022-09-15T20:51:33.824Z,25.99
2022-09-15T20:54:04.267Z,25.99
2022-09-15T20:56:34.919Z,25.93
2022-09-15T20:59:04.442Z,25.65
2022-09-15T21:01:37.535Z,25.57
2022-09-15T21:04:06.844Z,25.90
2022-09-15T21:06:34.745Z,26.03
2022-09-15T21:09:02.755Z,25.66
2022-09-15T21:11:30.790Z,25.60
2022-09-15T21:13:59.010Z,25.70
2022-09-15T21:16:28.474Z,26.16
2022-09-15T21:18:57.994Z,26.40
2022-09-15T21:21:29.920Z,26.06
2022-09-15T21:24:04.001Z,25.88
2022-09-15T21:27:00.371Z,26.14
2022-09-15T21:29:28.543Z,26.07
2022-09-15T21:31:56.368Z,25.87
2022-09-15T21:34:24.198Z,25.91
2022-09-15T21:36:53.640Z,26.02
2022-09-15T21:39:21.592Z,25.70
2022-09-15T21:41:49.802Z,25.55
2022-09-15T21:44:17.537Z,25.39
2022-09-15T21:46:46.970Z,25.34
2022-09-15T21:49:14.724Z,25.38
2022-09-15T21:51:42.250Z,25.27
2022-09-15T21:54:10.195Z,25.19
2022-09-15T21:56:37.749Z,25.22
2022-09-15T21:59:05.417Z,25.22
2022-09-15T22:01:33.327Z,25.14
2022-09-15T22:04:03.344Z,25.12
2022-09-15T22:06:40.576Z,24.92
2022-09-15T22:09:14.788Z,25.13
2022-09-15T22:11:42.301Z,25.09
2022-09-15T22:14:10.433Z,25.36
2022-09-15T22:16:39.507Z,25.61
2022-09-15T22:19:09.803Z,25.57
2022-09-15T22:21:41.624Z,25.57
2022-09-15T22:24:12.865Z,25.39
2022-09-15T22:26:42.498Z,25.26
2022-09-15T22:29:10.652Z,25.17
2022-09-15T22:31:38.700Z,25.17
2022-09-15T22:34:06.231Z,25.06
2022-09-15T22:36:34.269Z,24.91
2022-09-15T22:39:06.024Z,25.07
2022-09-15T22:41:37.091Z,25.02
2022-09-15T22:44:06.287Z,24.75
2022-09-15T22:46:33.923Z,24.79
2022-09-15T22:49:01.818Z,24.65
2022-09-15T22:51:29.662Z,24.61
2022-09-15T22:53:57.674Z,24.71
2022-09-15T22:56:26.270Z,24.89
2022-09-15T22:58:55.840Z,25.73
2022-09-15T23:01:26.764Z,25.91
2022-09-15T23:03:56.625Z,25.39
2022-09-15T23:06:26.668Z,25.06
2022-09-15T23:08:56.282Z,25.18
2022-09-15T23:11:24.884Z,25.02
2022-09-15T23:13:53.372Z,25.21
2022-09-15T23:16:22.488Z,25.16
2022-09-15T23:18:51.189Z,25.31
2022-09-15T23:21:19.220Z,25.19
2022-09-15T23:23:48.829Z,25.11
2022-09-15T23:26:18.406Z,24.83
2022-09-15T23:28:46.538Z,25.17
2022-09-15T23:31:14.484Z,25.26
2022-09-15T23:33:42.677Z,24.66
2022-09-15T23:36:13.499Z,24.69
2022-09-15T23:38:43.334Z,24.87
2022-09-15T23:41:11.910Z,24.56
2022-09-15T23:43:39.701Z,24.24
2022-09-15T23:46:07.566Z,24.38
2022-09-15T23:48:35.487Z,24.75
2022-09-15T23:51:03.778Z,24.74
2022-09-15T23:53:31.281Z,25.07
2022-09-15T23:55:58.714Z,24.79
2022-09-15T23:58:26.139Z,25.26
